Vicar, Spain
Current Conditions -  °F | °C
As of 9:00 PM on Sunday 23 Nov 2014 (Local Time) from LEAM Reporting Station
Few Clouds Few Clouds  
Wind Chill: 68°   Ceiling: Unl
Heat Index: 68°   Visibility: 6mi
Dew Point: 54°   Wind: 9mph
Humidity: 60%   Direction: 330°NNW
Pressure: 29.85"   Gusts: NA
Location:  36.83°N, 2.64°W
Report Text: LEAM 232000Z 33008KT 9999 FEW010 20/12 Q1011
Loading
Personal Weather Stations






























Interactive Weather Map New forecast layout! Learn more

10-Day Weather Forecast

Advertisements
Track Severe Weather on mobile